sensor_id;sensor_type;location;lat;lon;timestamp;pressure;altitude;pressure_sealevel;temperature;humidity
67803;BME280;72185;51.378;-1.342;2023-09-30T00:00:16;101223.60;;;21.07;39.33
67803;BME280;72185;51.378;-1.342;2023-09-30T00:02:41;101219.95;;;20.64;39.99
67803;BME280;72185;51.378;-1.342;2023-09-30T00:05:08;101219.65;;;20.36;40.42
67803;BME280;72185;51.378;-1.342;2023-09-30T00:07:32;101214.45;;;20.79;40.14
67803;BME280;72185;51.378;-1.342;2023-09-30T00:09:58;101209.29;;;20.79;40.42
67803;BME280;72185;51.378;-1.342;2023-09-30T00:12:28;101211.55;;;20.43;40.31
67803;BME280;72185;51.378;-1.342;2023-09-30T00:14:48;101221.20;;;20.45;40.56
67803;BME280;72185;51.378;-1.342;2023-09-30T00:17:14;101225.76;;;20.50;40.19
67803;BME280;72185;51.378;-1.342;2023-09-30T00:19:39;101225.26;;;20.49;40.38
67803;BME280;72185;51.378;-1.342;2023-09-30T00:22:05;101219.76;;;20.23;40.47
67803;BME280;72185;51.378;-1.342;2023-09-30T00:24:30;101216.06;;;20.10;40.65
67803;BME280;72185;51.378;-1.342;2023-09-30T00:26:55;101218.58;;;20.10;40.62
67803;BME280;72185;51.378;-1.342;2023-09-30T00:29:21;101210.30;;;20.23;40.37
67803;BME280;72185;51.378;-1.342;2023-09-30T00:31:46;101207.28;;;20.00;40.71
67803;BME280;72185;51.378;-1.342;2023-09-30T00:34:12;101221.75;;;20.28;40.40
67803;BME280;72185;51.378;-1.342;2023-09-30T00:36:37;101227.38;;;20.33;40.62
67803;BME280;72185;51.378;-1.342;2023-09-30T00:39:03;101235.57;;;20.43;40.43
67803;BME280;72185;51.378;-1.342;2023-09-30T00:41:28;101244.88;;;20.58;40.16
67803;BME280;72185;51.378;-1.342;2023-09-30T00:43:53;101241.57;;;20.61;40.12
67803;BME280;72185;51.378;-1.342;2023-09-30T00:46:26;101235.61;;;20.50;40.35
67803;BME280;72185;51.378;-1.342;2023-09-30T00:48:45;101227.97;;;20.21;40.64
67803;BME280;72185;51.378;-1.342;2023-09-30T00:51:10;101227.12;;;20.55;40.57
67803;BME280;72185;51.378;-1.342;2023-09-30T00:53:35;101240.86;;;20.29;40.54
67803;BME280;72185;51.378;-1.342;2023-09-30T00:56:00;101246.79;;;20.33;40.47
67803;BME280;72185;51.378;-1.342;2023-09-30T00:58:27;101253.81;;;20.24;40.57
67803;BME280;72185;51.378;-1.342;2023-09-30T01:00:52;101248.55;;;20.02;40.90
67803;BME280;72185;51.378;-1.342;2023-09-30T01:03:17;101232.34;;;20.24;40.24
67803;BME280;72185;51.378;-1.342;2023-09-30T01:05:42;101222.77;;;20.79;39.69
67803;BME280;72185;51.378;-1.342;2023-09-30T01:08:08;101223.13;;;20.76;39.71
67803;BME280;72185;51.378;-1.342;2023-09-30T01:10:33;101221.99;;;20.70;39.79
67803;BME280;72185;51.378;-1.342;2023-09-30T01:12:58;101222.18;;;21.09;39.58
67803;BME280;72185;51.378;-1.342;2023-09-30T01:15:24;101232.32;;;20.77;39.62
67803;BME280;72185;51.378;-1.342;2023-09-30T01:17:49;101228.48;;;20.56;39.65
67803;BME280;72185;51.378;-1.342;2023-09-30T01:20:15;101222.07;;;20.57;39.89
67803;BME280;72185;51.378;-1.342;2023-09-30T01:22:40;101229.24;;;20.70;39.71
67803;BME280;72185;51.378;-1.342;2023-09-30T01:25:07;101231.13;;;19.84;40.45
67803;BME280;72185;51.378;-1.342;2023-09-30T01:27:31;101228.03;;;20.57;40.12
67803;BME280;72185;51.378;-1.342;2023-09-30T01:29:56;101221.83;;;21.33;39.20
67803;BME280;72185;51.378;-1.342;2023-09-30T01:32:22;101212.16;;;20.61;39.68
67803;BME280;72185;51.378;-1.342;2023-09-30T01:34:47;101200.31;;;20.45;39.60
67803;BME280;72185;51.378;-1.342;2023-09-30T01:37:13;101198.64;;;20.01;40.28
67803;BME280;72185;51.378;-1.342;2023-09-30T01:39:38;101205.79;;;20.45;39.97
67803;BME280;72185;51.378;-1.342;2023-09-30T01:42:03;101212.73;;;20.45;39.97
67803;BME280;72185;51.378;-1.342;2023-09-30T01:44:29;101219.22;;;19.93;40.58
67803;BME280;72185;51.378;-1.342;2023-09-30T01:46:54;101214.73;;;20.01;40.25
67803;BME280;72185;51.378;-1.342;2023-09-30T01:49:20;101220.52;;;20.48;39.78
67803;BME280;72185;51.378;-1.342;2023-09-30T01:51:45;101217.84;;;19.92;40.57
67803;BME280;72185;51.378;-1.342;2023-09-30T01:54:11;101202.04;;;19.92;40.56
67803;BME280;72185;51.378;-1.342;2023-09-30T01:56:36;101195.32;;;20.18;40.17
67803;BME280;72185;51.378;-1.342;2023-09-30T01:59:01;101183.45;;;19.93;40.54
67803;BME280;72185;51.378;-1.342;2023-09-30T02:01:27;101195.21;;;19.88;40.72
67803;BME280;72185;51.378;-1.342;2023-09-30T02:03:52;101204.32;;;20.33;39.93
67803;BME280;72185;51.378;-1.342;2023-09-30T02:06:18;101204.48;;;20.11;40.30
67803;BME280;72185;51.378;-1.342;2023-09-30T02:08:43;101206.11;;;20.63;39.88
67803;BME280;72185;51.378;-1.342;2023-09-30T02:11:08;101196.00;;;20.22;40.05
67803;BME280;72185;51.378;-1.342;2023-09-30T02:13:34;101193.76;;;20.42;40.08
67803;BME280;72185;51.378;-1.342;2023-09-30T02:15:59;101197.99;;;20.02;40.30
67803;BME280;72185;51.378;-1.342;2023-09-30T02:18:25;101193.12;;;20.39;39.65
67803;BME280;72185;51.378;-1.342;2023-09-30T02:20:50;101189.80;;;19.82;40.22
67803;BME280;72185;51.378;-1.342;2023-09-30T02:23:16;101187.89;;;19.96;40.13
67803;BME280;72185;51.378;-1.342;2023-09-30T02:25:41;101191.42;;;20.26;39.78
67803;BME280;72185;51.378;-1.342;2023-09-30T02:28:07;101194.63;;;20.39;39.62
67803;BME280;72185;51.378;-1.342;2023-09-30T02:30:32;101194.43;;;20.32;39.75
67803;BME280;72185;51.378;-1.342;2023-09-30T02:32:57;101183.59;;;20.10;40.10
67803;BME280;72185;51.378;-1.342;2023-09-30T02:35:23;101183.71;;;20.33;39.96
67803;BME280;72185;51.378;-1.342;2023-09-30T02:37:48;101178.40;;;20.25;40.24
67803;BME280;72185;51.378;-1.342;2023-09-30T02:40:13;101181.42;;;20.55;39.81
67803;BME280;72185;51.378;-1.342;2023-09-30T02:42:40;101191.64;;;20.58;39.30
67803;BME280;72185;51.378;-1.342;2023-09-30T02:45:05;101188.58;;;19.96;40.06
67803;BME280;72185;51.378;-1.342;2023-09-30T02:47:30;101188.31;;;20.06;40.20
67803;BME280;72185;51.378;-1.342;2023-09-30T02:49:57;101185.88;;;19.70;40.48
67803;BME280;72185;51.378;-1.342;2023-09-30T02:52:21;101189.24;;;19.79;40.08
67803;BME280;72185;51.378;-1.342;2023-09-30T02:54:46;101188.77;;;19.62;40.33
67803;BME280;72185;51.378;-1.342;2023-09-30T02:57:12;101190.98;;;20.30;39.68
67803;BME280;72185;51.378;-1.342;2023-09-30T02:59:37;101194.88;;;20.17;39.84
67803;BME280;72185;51.378;-1.342;2023-09-30T03:02:02;101183.03;;;19.92;40.48
67803;BME280;72185;51.378;-1.342;2023-09-30T03:04:28;101178.98;;;19.69;40.49
67803;BME280;72185;51.378;-1.342;2023-09-30T03:06:53;101186.89;;;20.35;39.53
67803;BME280;72185;51.378;-1.342;2023-09-30T03:09:19;101198.18;;;19.82;39.79
67803;BME280;72185;51.378;-1.342;2023-09-30T03:11:45;101195.94;;;19.71;40.29
67803;BME280;72185;51.378;-1.342;2023-09-30T03:14:10;101191.75;;;20.13;40.10
67803;BME280;72185;51.378;-1.342;2023-09-30T03:16:35;101198.13;;;19.99;39.96
67803;BME280;72185;51.378;-1.342;2023-09-30T03:19:00;101199.64;;;20.03;40.29
67803;BME280;72185;51.378;-1.342;2023-09-30T03:21:26;101200.74;;;19.56;40.57
67803;BME280;72185;51.378;-1.342;2023-09-30T03:23:51;101201.58;;;19.53;40.65
67803;BME280;72185;51.378;-1.342;2023-09-30T03:26:17;101202.84;;;19.99;40.52
67803;BME280;72185;51.378;-1.342;2023-09-30T03:28:42;101191.10;;;19.95;40.41
67803;BME280;72185;51.378;-1.342;2023-09-30T03:31:08;101179.21;;;19.99;40.30
67803;BME280;72185;51.378;-1.342;2023-09-30T03:33:33;101179.78;;;19.65;40.77
67803;BME280;72185;51.378;-1.342;2023-09-30T03:35:58;101171.86;;;19.24;41.02
67803;BME280;72185;51.378;-1.342;2023-09-30T03:38:25;101171.44;;;19.77;40.58
67803;BME280;72185;51.378;-1.342;2023-09-30T03:40:49;101168.32;;;20.07;40.15
67803;BME280;72185;51.378;-1.342;2023-09-30T03:43:15;101164.09;;;19.72;40.55
67803;BME280;72185;51.378;-1.342;2023-09-30T03:45:40;101155.26;;;19.80;40.41
67803;BME280;72185;51.378;-1.342;2023-09-30T03:48:06;101151.49;;;19.69;40.07
67803;BME280;72185;51.378;-1.342;2023-09-30T03:50:31;101148.84;;;19.38;40.62
67803;BME280;72185;51.378;-1.342;2023-09-30T03:53:01;101150.95;;;19.58;40.81
67803;BME280;72185;51.378;-1.342;2023-09-30T03:55:22;101153.49;;;19.38;40.60
67803;BME280;72185;51.378;-1.342;2023-09-30T03:57:47;101143.84;;;19.86;40.36
67803;BME280;72185;51.378;-1.342;2023-09-30T04:00:13;101139.99;;;19.66;40.67
67803;BME280;72185;51.378;-1.342;2023-09-30T04:02:38;101139.49;;;20.02;40.00
67803;BME280;72185;51.378;-1.342;2023-09-30T04:05:04;101145.72;;;19.41;40.66
67803;BME280;72185;51.378;-1.342;2023-09-30T04:07:29;101140.97;;;19.79;39.82
67803;BME280;72185;51.378;-1.342;2023-09-30T04:09:54;101127.91;;;20.25;39.59
67803;BME280;72185;51.378;-1.342;2023-09-30T04:12:20;101115.72;;;19.90;40.16
67803;BME280;72185;51.378;-1.342;2023-09-30T04:14:45;101111.86;;;19.91;40.22
67803;BME280;72185;51.378;-1.342;2023-09-30T04:17:11;101119.89;;;19.73;39.85
67803;BME280;72185;51.378;-1.342;2023-09-30T04:19:36;101136.30;;;19.71;40.10
67803;BME280;72185;51.378;-1.342;2023-09-30T04:22:01;101142.00;;;19.89;40.12
67803;BME280;72185;51.378;-1.342;2023-09-30T04:24:27;101147.56;;;20.08;39.92
67803;BME280;72185;51.378;-1.342;2023-09-30T04:26:52;101149.96;;;19.87;40.20
67803;BME280;72185;51.378;-1.342;2023-09-30T04:29:18;101147.67;;;20.44;39.34
67803;BME280;72185;51.378;-1.342;2023-09-30T04:31:43;101147.22;;;20.17;39.66
67803;BME280;72185;51.378;-1.342;2023-09-30T04:34:09;101153.16;;;20.45;39.25
67803;BME280;72185;51.378;-1.342;2023-09-30T04:36:34;101151.68;;;20.17;39.64
67803;BME280;72185;51.378;-1.342;2023-09-30T04:38:59;101154.99;;;19.91;39.69
67803;BME280;72185;51.378;-1.342;2023-09-30T04:41:25;101152.52;;;20.23;39.62
67803;BME280;72185;51.378;-1.342;2023-09-30T04:43:50;101145.82;;;19.70;39.89
67803;BME280;72185;51.378;-1.342;2023-09-30T04:46:16;101147.00;;;19.79;39.85
67803;BME280;72185;51.378;-1.342;2023-09-30T04:48:41;101140.30;;;20.22;39.51
67803;BME280;72185;51.378;-1.342;2023-09-30T04:51:08;101138.69;;;20.17;39.52
67803;BME280;72185;51.378;-1.342;2023-09-30T04:53:32;101138.05;;;19.83;39.65
67803;BME280;72185;51.378;-1.342;2023-09-30T04:55:58;101142.09;;;19.75;39.91
67803;BME280;72185;51.378;-1.342;2023-09-30T04:58:23;101146.10;;;19.60;40.03
67803;BME280;72185;51.378;-1.342;2023-09-30T05:00:48;101150.32;;;19.55;39.89
67803;BME280;72185;51.378;-1.342;2023-09-30T05:03:14;101151.24;;;20.09;39.61
67803;BME280;72185;51.378;-1.342;2023-09-30T05:05:39;101152.18;;;20.01;39.31
67803;BME280;72185;51.378;-1.342;2023-09-30T05:08:05;101142.76;;;19.88;39.59
67803;BME280;72185;51.378;-1.342;2023-09-30T05:10:30;101133.23;;;19.60;39.93
67803;BME280;72185;51.378;-1.342;2023-09-30T05:12:56;101135.44;;;20.06;39.46
67803;BME280;72185;51.378;-1.342;2023-09-30T05:15:21;101137.09;;;20.10;39.21
67803;BME280;72185;51.378;-1.342;2023-09-30T05:17:47;101135.84;;;19.99;39.65
67803;BME280;72185;51.378;-1.342;2023-09-30T05:20:13;101139.08;;;20.05;39.73
67803;BME280;72185;51.378;-1.342;2023-09-30T05:22:37;101141.18;;;20.13;39.10
67803;BME280;72185;51.378;-1.342;2023-09-30T05:25:03;101145.21;;;19.87;39.47
67803;BME280;72185;51.378;-1.342;2023-09-30T05:27:28;101151.68;;;19.73;39.61
67803;BME280;72185;51.378;-1.342;2023-09-30T05:29:54;101152.32;;;19.80;39.79
67803;BME280;72185;51.378;-1.342;2023-09-30T05:32:19;101153.30;;;20.07;39.21
67803;BME280;72185;51.378;-1.342;2023-09-30T05:34:45;101151.26;;;19.70;39.63
67803;BME280;72185;51.378;-1.342;2023-09-30T05:37:10;101154.67;;;19.75;39.84
67803;BME280;72185;51.378;-1.342;2023-09-30T05:39:35;101162.56;;;20.11;39.42
67803;BME280;72185;51.378;-1.342;2023-09-30T05:42:01;101173.07;;;19.84;39.42
67803;BME280;72185;51.378;-1.342;2023-09-30T05:44:26;101172.03;;;20.12;39.34
67803;BME280;72185;51.378;-1.342;2023-09-30T05:46:52;101167.52;;;20.17;39.27
67803;BME280;72185;51.378;-1.342;2023-09-30T05:49:17;101156.82;;;20.24;39.13
67803;BME280;72185;51.378;-1.342;2023-09-30T05:51:42;101155.24;;;19.93;39.42
67803;BME280;72185;51.378;-1.342;2023-09-30T05:54:08;101158.29;;;19.82;39.32
67803;BME280;72185;51.378;-1.342;2023-09-30T05:56:33;101180.73;;;19.51;39.57
67803;BME280;72185;51.378;-1.342;2023-09-30T05:58:59;101180.91;;;19.96;39.39
67803;BME280;72185;51.378;-1.342;2023-09-30T06:01:24;101175.62;;;20.06;39.33
67803;BME280;72185;51.378;-1.342;2023-09-30T06:03:50;101177.09;;;20.31;39.06
67803;BME280;72185;51.378;-1.342;2023-09-30T06:06:15;101170.37;;;20.25;38.95
67803;BME280;72185;51.378;-1.342;2023-09-30T06:08:41;101167.85;;;19.87;39.50
67803;BME280;72185;51.378;-1.342;2023-09-30T06:11:06;101169.28;;;20.11;39.14
67803;BME280;72185;51.378;-1.342;2023-09-30T06:13:32;101174.54;;;19.98;39.32
67803;BME280;72185;51.378;-1.342;2023-09-30T06:15:58;101180.21;;;20.08;38.87
67803;BME280;72185;51.378;-1.342;2023-09-30T06:18:22;101189.09;;;20.18;39.10
67803;BME280;72185;51.378;-1.342;2023-09-30T06:20:48;101194.60;;;19.68;39.26
67803;BME280;72185;51.378;-1.342;2023-09-30T06:23:13;101199.48;;;19.92;39.35
67803;BME280;72185;51.378;-1.342;2023-09-30T06:25:39;101204.08;;;20.12;39.15
67803;BME280;72185;51.378;-1.342;2023-09-30T06:28:04;101211.09;;;20.04;39.19
67803;BME280;72185;51.378;-1.342;2023-09-30T06:30:30;101204.65;;;19.77;39.57
67803;BME280;72185;51.378;-1.342;2023-09-30T06:32:55;101201.83;;;19.83;39.50
67803;BME280;72185;51.378;-1.342;2023-09-30T06:35:20;101204.63;;;19.96;39.25
67803;BME280;72185;51.378;-1.342;2023-09-30T06:37:46;101199.94;;;20.02;38.87
67803;BME280;72185;51.378;-1.342;2023-09-30T06:40:12;101187.25;;;20.15;38.99
67803;BME280;72185;51.378;-1.342;2023-09-30T06:42:37;101188.06;;;20.10;39.07
67803;BME280;72185;51.378;-1.342;2023-09-30T06:45:08;101191.50;;;19.86;39.37
67803;BME280;72185;51.378;-1.342;2023-09-30T06:47:28;101185.59;;;20.27;38.97
67803;BME280;72185;51.378;-1.342;2023-09-30T06:49:53;101184.91;;;19.69;39.46
67803;BME280;72185;51.378;-1.342;2023-09-30T06:52:18;101181.85;;;19.27;39.87
67803;BME280;72185;51.378;-1.342;2023-09-30T06:54:44;101186.07;;;19.26;40.08
67803;BME280;72185;51.378;-1.342;2023-09-30T06:57:09;101197.41;;;19.91;39.41
67803;BME280;72185;51.378;-1.342;2023-09-30T06:59:35;101201.34;;;19.51;39.72
67803;BME280;72185;51.378;-1.342;2023-09-30T07:02:00;101205.68;;;20.11;39.23
67803;BME280;72185;51.378;-1.342;2023-09-30T07:04:26;101207.26;;;20.25;38.63
67803;BME280;72185;51.378;-1.342;2023-09-30T07:06:52;101208.99;;;20.35;38.73
67803;BME280;72185;51.378;-1.342;2023-09-30T07:09:17;101214.94;;;19.84;39.17
67803;BME280;72185;51.378;-1.342;2023-09-30T07:11:42;101223.00;;;19.99;38.94
67803;BME280;72185;51.378;-1.342;2023-09-30T07:14:08;101219.58;;;20.33;38.48
67803;BME280;72185;51.378;-1.342;2023-09-30T07:16:33;101222.39;;;20.46;38.45
67803;BME280;72185;51.378;-1.342;2023-09-30T07:19:03;101222.83;;;20.59;38.22
67803;BME280;72185;51.378;-1.342;2023-09-30T07:21:24;101223.31;;;19.65;39.47
67803;BME280;72185;51.378;-1.342;2023-09-30T07:23:49;101220.99;;;19.59;39.53
67803;BME280;72185;51.378;-1.342;2023-09-30T07:26:15;101231.30;;;20.37;38.47
67803;BME280;72185;51.378;-1.342;2023-09-30T07:28:40;101235.14;;;20.41;38.34
67803;BME280;72185;51.378;-1.342;2023-09-30T07:31:05;101235.09;;;19.95;38.83
67803;BME280;72185;51.378;-1.342;2023-09-30T07:33:31;101234.48;;;20.50;38.34
67803;BME280;72185;51.378;-1.342;2023-09-30T07:35:56;101238.61;;;20.62;38.11
67803;BME280;72185;51.378;-1.342;2023-09-30T07:38:27;101245.86;;;19.56;39.49
67803;BME280;72185;51.378;-1.342;2023-09-30T07:40:47;101246.89;;;19.85;38.79
67803;BME280;72185;51.378;-1.342;2023-09-30T07:43:13;101244.86;;;20.35;38.46
67803;BME280;72185;51.378;-1.342;2023-09-30T07:45:40;101231.12;;;20.49;37.98
67803;BME280;72185;51.378;-1.342;2023-09-30T07:48:05;101219.90;;;20.23;38.54
67803;BME280;72185;51.378;-1.342;2023-09-30T07:50:29;101221.80;;;20.41;38.44
67803;BME280;72185;51.378;-1.342;2023-09-30T07:52:54;101233.48;;;20.71;38.01
67803;BME280;72185;51.378;-1.342;2023-09-30T07:55:20;101233.64;;;20.58;38.12
67803;BME280;72185;51.378;-1.342;2023-09-30T07:57:45;101233.65;;;20.05;38.74
67803;BME280;72185;51.378;-1.342;2023-09-30T08:00:12;101234.19;;;20.55;38.16
67803;BME280;72185;51.378;-1.342;2023-09-30T08:02:36;101232.64;;;21.02;37.62
67803;BME280;72185;51.378;-1.342;2023-09-30T08:05:02;101231.03;;;20.53;37.88
67803;BME280;72185;51.378;-1.342;2023-09-30T08:07:27;101226.23;;;20.77;38.00
67803;BME280;72185;51.378;-1.342;2023-09-30T08:09:52;101227.01;;;21.08;37.49
67803;BME280;72185;51.378;-1.342;2023-09-30T08:12:18;101212.10;;;21.36;37.39
67803;BME280;72185;51.378;-1.342;2023-09-30T08:14:43;101216.36;;;21.39;37.37
67803;BME280;72185;51.378;-1.342;2023-09-30T08:17:13;101213.16;;;21.33;37.02
67803;BME280;72185;51.378;-1.342;2023-09-30T08:19:34;101210.53;;;21.45;37.30
67803;BME280;72185;51.378;-1.342;2023-09-30T08:21:59;101226.14;;;21.07;37.47
67803;BME280;72185;51.378;-1.342;2023-09-30T08:24:25;101247.82;;;20.98;37.31
67803;BME280;72185;51.378;-1.342;2023-09-30T08:26:50;101239.91;;;21.50;37.31
67803;BME280;72185;51.378;-1.342;2023-09-30T08:29:16;101231.11;;;21.68;37.08
67803;BME280;72185;51.378;-1.342;2023-09-30T08:31:41;101231.01;;;21.52;36.98
67803;BME280;72185;51.378;-1.342;2023-09-30T08:34:07;101231.86;;;21.90;36.90
67803;BME280;72185;51.378;-1.342;2023-09-30T08:36:32;101228.27;;;21.93;36.81
67803;BME280;72185;51.378;-1.342;2023-09-30T08:38:57;101220.90;;;21.64;36.30
67803;BME280;72185;51.378;-1.342;2023-09-30T08:41:30;101212.75;;;21.70;36.65
67803;BME280;72185;51.378;-1.342;2023-09-30T08:43:48;101214.18;;;21.58;36.80
67803;BME280;72185;51.378;-1.342;2023-09-30T08:46:14;101214.09;;;21.58;36.79
67803;BME280;72185;51.378;-1.342;2023-09-30T08:48:39;101213.72;;;21.84;36.81
67803;BME280;72185;51.378;-1.342;2023-09-30T08:51:04;101218.94;;;21.77;36.98
67803;BME280;72185;51.378;-1.342;2023-09-30T08:53:30;101223.82;;;21.60;36.90
67803;BME280;72185;51.378;-1.342;2023-09-30T08:55:56;101231.08;;;21.98;36.87
67803;BME280;72185;51.378;-1.342;2023-09-30T08:58:23;101229.67;;;21.84;36.77
67803;BME280;72185;51.378;-1.342;2023-09-30T09:00:47;101224.24;;;21.80;36.82
67803;BME280;72185;51.378;-1.342;2023-09-30T09:03:12;101219.94;;;21.90;36.55
67803;BME280;72185;51.378;-1.342;2023-09-30T09:05:37;101212.06;;;21.94;36.37
67803;BME280;72185;51.378;-1.342;2023-09-30T09:08:03;101210.02;;;21.83;36.52
67803;BME280;72185;51.378;-1.342;2023-09-30T09:10:28;101211.84;;;21.96;36.74
67803;BME280;72185;51.378;-1.342;2023-09-30T09:12:56;101214.90;;;21.89;36.80
67803;BME280;72185;51.378;-1.342;2023-09-30T09:15:23;101219.91;;;21.60;36.86
67803;BME280;72185;51.378;-1.342;2023-09-30T09:17:45;101218.60;;;21.79;36.97
67803;BME280;72185;51.378;-1.342;2023-09-30T09:20:11;101215.64;;;21.85;36.90
67803;BME280;72185;51.378;-1.342;2023-09-30T09:22:39;101211.13;;;21.85;36.90
67803;BME280;72185;51.378;-1.342;2023-09-30T09:25:00;101214.90;;;21.88;36.86
67803;BME280;72185;51.378;-1.342;2023-09-30T09:27:26;101216.06;;;21.80;36.94
67803;BME280;72185;51.378;-1.342;2023-09-30T09:29:51;101208.34;;;21.88;36.84
67803;BME280;72185;51.378;-1.342;2023-09-30T09:32:17;101202.94;;;21.84;36.93
67803;BME280;72185;51.378;-1.342;2023-09-30T09:34:44;101201.08;;;21.62;36.86
67803;BME280;72185;51.378;-1.342;2023-09-30T09:37:13;101202.22;;;21.47;37.04
67803;BME280;72185;51.378;-1.342;2023-09-30T09:39:33;101198.81;;;21.56;36.95
67803;BME280;72185;51.378;-1.342;2023-09-30T09:41:58;101200.15;;;21.58;36.92
67803;BME280;72185;51.378;-1.342;2023-09-30T09:44:24;101205.01;;;21.78;37.05
67803;BME280;72185;51.378;-1.342;2023-09-30T09:46:49;101207.33;;;21.54;37.04
67803;BME280;72185;51.378;-1.342;2023-09-30T09:49:21;101204.61;;;21.62;36.94
67803;BME280;72185;51.378;-1.342;2023-09-30T09:51:40;101212.60;;;21.49;37.14
67803;BME280;72185;51.378;-1.342;2023-09-30T09:54:06;101216.58;;;21.38;36.97
67803;BME280;72185;51.378;-1.342;2023-09-30T09:56:32;101210.98;;;21.62;36.94
67803;BME280;72185;51.378;-1.342;2023-09-30T09:58:56;101212.29;;;21.60;36.96
67803;BME280;72185;51.378;-1.342;2023-09-30T10:01:22;101205.84;;;21.78;37.12
67803;BME280;72185;51.378;-1.342;2023-09-30T10:03:47;101204.84;;;21.77;37.19
67803;BME280;72185;51.378;-1.342;2023-09-30T10:06:15;101206.95;;;21.93;37.12
67803;BME280;72185;51.378;-1.342;2023-09-30T10:08:41;101201.27;;;21.72;37.02
67803;BME280;72185;51.378;-1.342;2023-09-30T10:11:04;101195.00;;;21.81;36.89
67803;BME280;72185;51.378;-1.342;2023-09-30T10:15:54;101196.83;;;22.10;36.90
67803;BME280;72185;51.378;-1.342;2023-09-30T10:18:20;101196.59;;;21.89;36.82
67803;BME280;72185;51.378;-1.342;2023-09-30T10:20:45;101182.02;;;21.88;36.87
67803;BME280;72185;51.378;-1.342;2023-09-30T10:25:36;101176.43;;;21.89;37.02
67803;BME280;72185;51.378;-1.342;2023-09-30T10:30:27;101160.11;;;21.93;36.99
67803;BME280;72185;51.378;-1.342;2023-09-30T10:35:18;101155.97;;;22.00;37.00
67803;BME280;72185;51.378;-1.342;2023-09-30T10:37:44;101152.91;;;22.30;36.96
67803;BME280;72185;51.378;-1.342;2023-09-30T10:40:09;101158.89;;;21.96;36.74
67803;BME280;72185;51.378;-1.342;2023-09-30T10:42:43;101152.26;;;22.25;36.90
67803;BME280;72185;51.378;-1.342;2023-09-30T10:45:05;101152.69;;;22.02;36.89
67803;BME280;72185;51.378;-1.342;2023-09-30T10:49:50;101147.67;;;22.07;36.78
67803;BME280;72185;51.378;-1.342;2023-09-30T10:52:21;101145.58;;;22.06;36.77
67803;BME280;72185;51.378;-1.342;2023-09-30T10:54:41;101140.45;;;21.84;36.77
67803;BME280;72185;51.378;-1.342;2023-09-30T10:57:10;101141.85;;;21.90;36.70
67803;BME280;72185;51.378;-1.342;2023-09-30T10:59:32;101140.39;;;22.10;36.77
67803;BME280;72185;51.378;-1.342;2023-09-30T11:01:58;101135.96;;;22.02;36.89
67803;BME280;72185;51.378;-1.342;2023-09-30T11:04:23;101134.72;;;22.08;36.82
67803;BME280;72185;51.378;-1.342;2023-09-30T11:06:48;101130.14;;;22.03;36.98
67803;BME280;72185;51.378;-1.342;2023-09-30T11:09:17;101134.40;;;21.88;36.84
67803;BME280;72185;51.378;-1.342;2023-09-30T11:11:40;101137.71;;;22.01;37.01
67803;BME280;72185;51.378;-1.342;2023-09-30T11:16:30;101130.52;;;22.14;36.78
67803;BME280;72185;51.378;-1.342;2023-09-30T11:18:55;101122.19;;;22.16;36.74
67803;BME280;72185;51.378;-1.342;2023-09-30T11:21:22;101123.48;;;22.25;36.62
67803;BME280;72185;51.378;-1.342;2023-09-30T11:23:46;101121.69;;;21.96;36.74
67803;BME280;72185;51.378;-1.342;2023-09-30T11:26:12;101130.73;;;21.87;36.94
67803;BME280;72185;51.378;-1.342;2023-09-30T11:28:39;101125.20;;;22.06;36.88
67803;BME280;72185;51.378;-1.342;2023-09-30T11:31:03;101123.17;;;22.05;36.89
67803;BME280;72185;51.378;-1.342;2023-09-30T11:33:29;101123.18;;;22.06;36.93
67803;BME280;72185;51.378;-1.342;2023-09-30T11:35:59;101100.92;;;22.04;36.96
67803;BME280;72185;51.378;-1.342;2023-09-30T11:38:19;101098.79;;;21.86;36.89
67803;BME280;72185;51.378;-1.342;2023-09-30T11:43:10;101105.00;;;21.81;37.01
67803;BME280;72185;51.378;-1.342;2023-09-30T11:45:35;101104.08;;;21.91;36.89
67803;BME280;72185;51.378;-1.342;2023-09-30T11:48:01;101097.17;;;22.11;36.92
67803;BME280;72185;51.378;-1.342;2023-09-30T11:50:26;101088.92;;;22.34;36.97
67803;BME280;72185;51.378;-1.342;2023-09-30T11:52:51;101080.02;;;21.84;37.00
67803;BME280;72185;51.378;-1.342;2023-09-30T11:55:17;101078.79;;;22.13;36.92
67803;BME280;72185;51.378;-1.342;2023-09-30T11:57:42;101077.56;;;21.86;36.97
67803;BME280;72185;51.378;-1.342;2023-09-30T12:00:09;101076.15;;;22.07;37.01
67803;BME280;72185;51.378;-1.342;2023-09-30T12:02:33;101076.98;;;22.29;37.06
67803;BME280;72185;51.378;-1.342;2023-09-30T12:04:59;101074.34;;;22.01;37.11
67803;BME280;72185;51.378;-1.342;2023-09-30T12:07:24;101071.07;;;21.77;37.13
67803;BME280;72185;51.378;-1.342;2023-09-30T12:09:49;101074.91;;;22.12;37.01
67803;BME280;72185;51.378;-1.342;2023-09-30T12:12:15;101065.76;;;22.03;37.12
67803;BME280;72185;51.378;-1.342;2023-09-30T12:14:40;101059.01;;;22.29;37.12
67803;BME280;72185;51.378;-1.342;2023-09-30T12:17:06;101058.16;;;21.91;37.27
67803;BME280;72185;51.378;-1.342;2023-09-30T12:19:31;101060.96;;;22.09;37.03
67803;BME280;72185;51.378;-1.342;2023-09-30T12:21:57;101052.64;;;21.97;37.16
67803;BME280;72185;51.378;-1.342;2023-09-30T12:24:22;101048.44;;;22.36;37.02
67803;BME280;72185;51.378;-1.342;2023-09-30T12:26:48;101043.37;;;22.00;37.15
67803;BME280;72185;51.378;-1.342;2023-09-30T12:29:13;101039.18;;;21.98;37.19
67803;BME280;72185;51.378;-1.342;2023-09-30T12:31:38;101033.48;;;21.76;37.20
67803;BME280;72185;51.378;-1.342;2023-09-30T12:34:04;101027.73;;;22.22;37.22
67803;BME280;72185;51.378;-1.342;2023-09-30T12:36:29;101021.18;;;21.96;37.23
67803;BME280;72185;51.378;-1.342;2023-09-30T12:38:54;101021.32;;;22.00;37.18
67803;BME280;72185;51.378;-1.342;2023-09-30T12:41:20;101027.50;;;22.10;37.09
67803;BME280;72185;51.378;-1.342;2023-09-30T12:43:45;101029.08;;;22.01;37.21
67803;BME280;72185;51.378;-1.342;2023-09-30T12:46:11;101025.16;;;21.93;37.28